createdAt,value
2022-08-11T00:00:54.362Z,21.09
2022-08-11T00:01:56.899Z,21.10
2022-08-11T00:03:06.631Z,21.09
2022-08-11T00:04:08.916Z,21.08
2022-08-11T00:05:15.348Z,21.08
2022-08-11T00:06:26.660Z,21.07
2022-08-11T00:07:30.197Z,21.06
2022-08-11T00:08:34.491Z,21.06
2022-08-11T00:09:40.159Z,21.06
2022-08-11T00:10:42.435Z,21.06
2022-08-11T00:11:49.914Z,21.06
2022-08-11T00:12:54.214Z,21.06
2022-08-11T00:13:57.432Z,21.06
2022-08-11T00:15:01.324Z,21.05
2022-08-11T00:16:05.457Z,21.05
2022-08-11T00:17:09.451Z,21.04
2022-08-11T00:18:14.681Z,21.04
2022-08-11T00:20:12.686Z,21.03
2022-08-11T00:20:46.562Z,21.03
2022-08-11T00:22:04.190Z,21.02
2022-08-11T00:23:11.642Z,21.01
2022-08-11T00:24:16.439Z,20.99
2022-08-11T00:25:21.748Z,21.00
2022-08-11T00:26:25.059Z,20.99
2022-08-11T00:27:35.770Z,20.98
2022-08-11T00:28:37.957Z,20.99
2022-08-11T00:29:51.487Z,20.97
2022-08-11T00:30:55.064Z,20.96
2022-08-11T00:32:01.828Z,20.96
2022-08-11T00:33:05.132Z,20.95
2022-08-11T00:34:13.372Z,20.95
2022-08-11T00:35:51.906Z,20.91
2022-08-11T00:36:46.592Z,20.90
2022-08-11T00:37:50.570Z,20.91
2022-08-11T00:38:55.424Z,20.92
2022-08-11T00:40:00.132Z,20.91
2022-08-11T00:41:17.726Z,20.91
2022-08-11T00:42:30.543Z,20.88
2022-08-11T00:43:51.206Z,20.87
2022-08-11T00:45:07.414Z,20.85
2022-08-11T00:46:14.206Z,20.84
2022-08-11T00:47:25.159Z,20.83
2022-08-11T00:48:33.743Z,20.82
2022-08-11T00:49:46.633Z,20.82
2022-08-11T00:51:02.350Z,20.81
2022-08-11T00:52:22.967Z,20.81
2022-08-11T00:53:35.223Z,20.79
2022-08-11T00:55:37.543Z,20.78
2022-08-11T00:57:37.342Z,20.79
2022-08-11T00:59:34.891Z,20.77
2022-08-11T01:01:04.059Z,20.74
2022-08-11T01:02:19.443Z,20.73
2022-08-11T01:03:43.922Z,20.71
2022-08-11T01:05:23.301Z,20.70
2022-08-11T01:07:11.945Z,20.69
2022-08-11T01:08:47.609Z,20.66
2022-08-11T01:10:07.660Z,20.66
2022-08-11T01:11:55.432Z,20.66
2022-08-11T01:13:17.084Z,20.65
2022-08-11T01:14:51.537Z,20.62
2022-08-11T01:16:13.048Z,20.61
2022-08-11T01:18:06.431Z,20.59
2022-08-11T01:20:45.044Z,20.58
2022-08-11T01:22:13.369Z,20.54
2022-08-11T01:24:03.735Z,20.53
2022-08-11T01:25:57.428Z,20.52
2022-08-11T01:27:22.134Z,20.52
2022-08-11T01:29:02.977Z,20.50
2022-08-11T01:30:41.473Z,20.50
2022-08-11T01:32:04.333Z,20.49
2022-08-11T01:33:50.559Z,20.51
2022-08-11T01:35:28.881Z,20.51
2022-08-11T01:36:57.054Z,20.50
2022-08-11T01:38:24.493Z,20.51
2022-08-11T01:39:54.977Z,20.52
2022-08-11T01:41:50.221Z,20.49
2022-08-11T01:43:55.809Z,20.49
2022-08-11T01:45:22.505Z,20.49
2022-08-11T01:46:32.091Z,20.48
2022-08-11T01:47:54.251Z,20.47
2022-08-11T01:50:06.967Z,20.45
2022-08-11T01:50:49.652Z,20.45
2022-08-11T01:52:08.698Z,20.45
2022-08-11T01:53:22.991Z,20.47
2022-08-11T01:54:29.956Z,20.46
2022-08-11T01:55:39.230Z,20.45
2022-08-11T01:56:57.002Z,20.44
2022-08-11T01:58:09.643Z,20.44
2022-08-11T01:59:18.499Z,20.41
2022-08-11T02:00:26.370Z,20.40
2022-08-11T02:01:38.256Z,20.39
2022-08-11T02:02:53.860Z,20.37
2022-08-11T02:04:04.954Z,20.36
2022-08-11T02:05:19.504Z,20.34
2022-08-11T02:06:54.477Z,20.32
2022-08-11T02:08:09.796Z,20.32
2022-08-11T02:09:26.507Z,20.29
2022-08-11T02:10:54.627Z,20.28
2022-08-11T02:12:04.489Z,20.29
2022-08-11T02:13:15.390Z,20.29
2022-08-11T02:14:27.405Z,20.27
2022-08-11T02:15:38.389Z,20.27
2022-08-11T02:17:05.860Z,20.27
2022-08-11T02:18:15.034Z,20.26
2022-08-11T02:19:45.259Z,20.27
2022-08-11T02:21:13.050Z,20.24
2022-08-11T02:22:49.497Z,20.25
2022-08-11T02:24:04.938Z,20.23
2022-08-11T02:25:23.031Z,20.22
2022-08-11T02:26:33.054Z,20.21
2022-08-11T02:27:42.750Z,20.21
2022-08-11T02:29:05.565Z,20.20
2022-08-11T02:30:12.091Z,20.18
2022-08-11T02:32:24.831Z,20.18
2022-08-11T02:33:24.971Z,20.17
2022-08-11T02:34:39.939Z,20.18
2022-08-11T02:35:48.248Z,20.18
2022-08-11T02:37:01.080Z,20.18
2022-08-11T02:38:17.936Z,20.16
2022-08-11T02:39:20.763Z,20.13
2022-08-11T02:40:32.347Z,20.10
2022-08-11T02:42:08.004Z,20.07
2022-08-11T02:43:48.055Z,20.03
2022-08-11T02:45:10.050Z,20.04
2022-08-11T02:46:28.569Z,20.03
2022-08-11T02:47:39.686Z,20.02
2022-08-11T02:49:10.893Z,20.00
2022-08-11T02:50:20.713Z,20.01
2022-08-11T02:51:31.563Z,20.03
2022-08-11T02:52:45.369Z,20.04
2022-08-11T02:53:56.430Z,20.04
2022-08-11T02:55:48.748Z,20.05
2022-08-11T02:56:52.309Z,20.05
2022-08-11T02:58:03.778Z,20.06
2022-08-11T02:59:30.186Z,20.07
2022-08-11T03:00:51.959Z,20.06
2022-08-11T03:02:04.989Z,20.06
2022-08-11T03:03:24.911Z,20.05
2022-08-11T03:04:38.016Z,20.04
2022-08-11T03:05:55.982Z,20.03
2022-08-11T03:07:06.597Z,20.02
2022-08-11T03:08:40.881Z,20.01
2022-08-11T03:09:50.890Z,20.01
2022-08-11T03:11:21.762Z,20.00
2022-08-11T03:12:53.463Z,20.00
2022-08-11T03:14:28.459Z,20.00
2022-08-11T03:16:02.663Z,19.97
2022-08-11T03:17:22.857Z,19.93
2022-08-11T03:18:32.994Z,19.91
2022-08-11T03:19:47.028Z,19.89
2022-08-11T03:20:59.123Z,19.88
2022-08-11T03:22:09.548Z,19.87
2022-08-11T03:23:23.339Z,19.79
2022-08-11T03:24:32.766Z,19.75
2022-08-11T03:25:45.160Z,19.72
2022-08-11T03:26:57.363Z,19.74
2022-08-11T03:28:08.243Z,19.73
2022-08-11T03:29:24.816Z,19.72
2022-08-11T03:30:40.142Z,19.72
2022-08-11T03:31:50.479Z,19.74
2022-08-11T03:33:20.814Z,19.71
2022-08-11T03:34:27.315Z,19.73
2022-08-11T03:35:37.566Z,19.74
2022-08-11T03:37:33.495Z,19.76
2022-08-11T03:38:48.360Z,19.77
2022-08-11T03:40:00.967Z,19.75
2022-08-11T03:42:02.751Z,19.74
2022-08-11T03:43:07.825Z,19.75
2022-08-11T03:44:35.770Z,19.76
2022-08-11T03:45:57.272Z,19.76
2022-08-11T03:47:27.190Z,19.76
2022-08-11T03:48:44.133Z,19.75
2022-08-11T03:50:01.288Z,19.74
2022-08-11T03:51:13.654Z,19.75
2022-08-11T03:52:28.724Z,19.74
2022-08-11T03:53:55.935Z,19.73
2022-08-11T03:55:11.010Z,19.72
2022-08-11T03:56:37.479Z,19.72
2022-08-11T03:58:08.081Z,19.71
2022-08-11T03:59:37.029Z,19.68
2022-08-11T04:01:11.295Z,19.66
2022-08-11T04:02:42.631Z,19.65
2022-08-11T04:04:24.928Z,19.66
2022-08-11T04:05:39.696Z,19.66
2022-08-11T04:07:30.123Z,19.66
2022-08-11T04:09:07.351Z,19.64
2022-08-11T04:11:02.411Z,19.63
2022-08-11T04:12:44.244Z,19.58
2022-08-11T04:14:40.711Z,19.57
2022-08-11T04:16:11.313Z,19.55
2022-08-11T04:17:48.718Z,19.56
2022-08-11T04:19:28.116Z,19.55
2022-08-11T04:20:49.653Z,19.54
2022-08-11T04:22:14.246Z,19.53
2022-08-11T04:24:36.677Z,19.52
2022-08-11T04:25:27.230Z,19.52
2022-08-11T04:26:59.415Z,19.51
2022-08-11T04:28:31.638Z,19.48
2022-08-11T04:30:01.958Z,19.46
2022-08-11T04:31:50.854Z,19.47
2022-08-11T04:33:09.420Z,19.46
2022-08-11T04:34:35.894Z,19.45
2022-08-11T04:35:51.268Z,19.44
2022-08-11T04:37:34.239Z,19.42
2022-08-11T04:38:58.668Z,19.40
2022-08-11T04:40:12.588Z,19.39
2022-08-11T04:41:34.456Z,19.39
2022-08-11T04:43:20.631Z,19.38
2022-08-11T04:44:55.853Z,19.37
2022-08-11T04:46:26.901Z,19.37
2022-08-11T04:48:06.713Z,19.37
2022-08-11T04:49:50.260Z,19.40
2022-08-11T04:51:23.816Z,19.41
2022-08-11T04:53:22.610Z,19.43
2022-08-11T04:54:57.824Z,19.47
2022-08-11T04:56:25.354Z,19.50
2022-08-11T04:57:56.832Z,19.55
2022-08-11T04:59:38.887Z,19.60
2022-08-11T05:01:14.659Z,19.65
2022-08-11T05:02:59.813Z,19.71
2022-08-11T05:04:40.316Z,19.76
2022-08-11T05:06:18.900Z,19.83
2022-08-11T05:08:03.553Z,19.86
2022-08-11T05:09:26.343Z,19.91
2022-08-11T05:10:47.044Z,19.96
2022-08-11T05:12:14.802Z,20.01
2022-08-11T05:13:47.005Z,20.05
2022-08-11T05:15:10.384Z,20.10
2022-08-11T05:16:37.509Z,20.15
2022-08-11T05:18:14.291Z,20.19
2022-08-11T05:19:36.658Z,20.24
2022-08-11T05:21:05.375Z,20.28
2022-08-11T05:22:30.845Z,20.32
2022-08-11T05:23:54.011Z,20.39
2022-08-11T05:26:43.780Z,20.42
2022-08-11T05:27:09.929Z,20.48
2022-08-11T05:28:39.599Z,20.50
2022-08-11T05:30:05.812Z,20.55
2022-08-11T05:31:37.434Z,20.59
2022-08-11T05:33:02.274Z,20.63
2022-08-11T05:34:29.095Z,20.68
2022-08-11T05:36:00.179Z,20.72
2022-08-11T05:37:25.031Z,20.77
2022-08-11T05:38:49.147Z,20.81
2022-08-11T05:40:14.497Z,20.84
2022-08-11T05:41:38.731Z,20.87
2022-08-11T05:43:07.602Z,20.90
2022-08-11T05:44:29.437Z,20.93
2022-08-11T05:45:58.140Z,20.99
2022-08-11T05:47:27.128Z,21.00
2022-08-11T05:48:52.154Z,21.02
2022-08-11T05:50:13.584Z,21.05
2022-08-11T05:51:35.808Z,21.11
2022-08-11T05:52:57.505Z,21.15
2022-08-11T05:54:28.606Z,21.20
2022-08-11T05:56:02.330Z,21.24
2022-08-11T05:57:08.377Z,21.29
2022-08-11T05:58:13.452Z,21.33
2022-08-11T05:59:19.386Z,21.35
2022-08-11T06:00:24.197Z,21.38
2022-08-11T06:01:31.112Z,21.40
2022-08-11T06:02:40.712Z,21.41
2022-08-11T06:04:04.194Z,21.44
2022-08-11T06:05:07.595Z,21.41
2022-08-11T06:06:12.443Z,21.38
2022-08-11T06:07:17.709Z,21.37
2022-08-11T06:08:28.742Z,21.38
2022-08-11T06:09:35.075Z,21.39
2022-08-11T06:10:41.650Z,21.41
2022-08-11T06:11:45.156Z,21.43
2022-08-11T06:12:55.789Z,21.44
2022-08-11T06:13:58.157Z,21.35
2022-08-11T06:15:05.824Z,21.33
2022-08-11T06:16:09.176Z,21.32
2022-08-11T06:17:12.331Z,21.24
2022-08-11T06:18:16.214Z,21.23
2022-08-11T06:19:23.100Z,21.14
2022-08-11T06:20:25.973Z,21.06
2022-08-11T06:21:29.371Z,21.06
2022-08-11T06:22:34.500Z,20.93
2022-08-11T06:23:38.180Z,20.96
2022-08-11T06:24:46.157Z,21.02
2022-08-11T06:25:49.434Z,21.04
2022-08-11T06:27:12.781Z,21.05
2022-08-11T06:28:20.800Z,21.16
2022-08-11T06:29:38.137Z,21.23
2022-08-11T06:30:49.035Z,21.32
2022-08-11T06:31:53.665Z,21.37
2022-08-11T06:32:58.225Z,21.39
2022-08-11T06:34:11.237Z,21.27
2022-08-11T06:35:22.978Z,21.23
2022-08-11T06:36:32.044Z,21.23
2022-08-11T06:37:46.718Z,21.27
2022-08-11T06:39:01.497Z,21.34
2022-08-11T06:40:09.336Z,21.41
2022-08-11T06:41:34.360Z,21.43
2022-08-11T06:42:48.126Z,21.43
2022-08-11T06:43:56.422Z,21.45
2022-08-11T06:45:06.845Z,21.42
2022-08-11T06:46:12.527Z,21.44
2022-08-11T06:47:29.312Z,21.48
2022-08-11T06:48:34.733Z,21.49
2022-08-11T06:50:02.339Z,21.51
2022-08-11T06:51:14.394Z,21.55
2022-08-11T06:52:34.219Z,21.59
2022-08-11T06:53:56.364Z,21.48
2022-08-11T06:55:54.897Z,21.48
2022-08-11T06:57:25.960Z,21.53
2022-08-11T06:58:37.802Z,21.58
2022-08-11T06:59:59.140Z,21.64
2022-08-11T07:01:08.195Z,21.70
2022-08-11T07:02:18.456Z,21.71
2022-08-11T07:03:21.905Z,21.71
2022-08-11T07:04:32.754Z,21.71
2022-08-11T07:05:47.157Z,21.72
2022-08-11T07:07:12.702Z,21.63
2022-08-11T07:08:59.815Z,21.58
2022-08-11T07:10:52.251Z,21.51
2022-08-11T07:12:28.333Z,21.47
2022-08-11T07:13:54.587Z,21.51
2022-08-11T07:15:17.737Z,21.55
2022-08-11T07:16:27.493Z,21.58
2022-08-11T07:17:35.120Z,21.59
2022-08-11T07:18:57.554Z,21.62
2022-08-11T07:20:20.961Z,21.63
2022-08-11T07:22:01.477Z,21.54
2022-08-11T07:23:27.778Z,21.54
2022-08-11T07:24:59.608Z,21.61
2022-08-11T07:26:24.334Z,21.67
2022-08-11T07:27:50.212Z,21.72
2022-08-11T07:28:58.847Z,21.81
2022-08-11T07:30:05.949Z,21.82
2022-08-11T07:31:14.084Z,21.85
2022-08-11T07:32:25.384Z,21.84
2022-08-11T07:34:07.713Z,21.76
2022-08-11T07:35:13.265Z,21.55
2022-08-11T07:36:16.574Z,21.51
2022-08-11T07:37:22.283Z,21.52
2022-08-11T07:38:43.219Z,21.53
2022-08-11T07:39:49.412Z,21.55
2022-08-11T07:40:52.864Z,21.56
2022-08-11T07:41:58.389Z,21.61
2022-08-11T07:43:02.423Z,21.65
2022-08-11T07:44:09.264Z,21.71
2022-08-11T07:45:30.958Z,21.78
2022-08-11T07:47:06.377Z,21.83
2022-08-11T07:48:28.310Z,21.87
2022-08-11T07:49:52.059Z,21.86
2022-08-11T07:51:13.100Z,21.84
2022-08-11T07:52:29.506Z,21.82
2022-08-11T07:53:41.675Z,21.78
2022-08-11T07:54:48.834Z,21.79
2022-08-11T07:55:57.296Z,21.78
2022-08-11T07:57:09.234Z,21.81
2022-08-11T07:58:35.473Z,21.82
2022-08-11T08:00:07.058Z,21.80
2022-08-11T08:01:38.712Z,21.83
2022-08-11T08:02:59.512Z,21.86
2022-08-11T08:04:20.248Z,21.89
2022-08-11T08:05:40.943Z,21.94
2022-08-11T08:07:01.826Z,21.95
2022-08-11T08:08:23.733Z,21.92
2022-08-11T08:09:46.427Z,21.85
2022-08-11T08:11:06.953Z,21.86
2022-08-11T08:12:28.273Z,21.89
2022-08-11T08:13:52.256Z,21.94
2022-08-11T08:15:14.768Z,21.93
2022-08-11T08:16:35.487Z,21.92
2022-08-11T08:18:09.071Z,21.94
2022-08-11T08:19:18.164Z,21.98
2022-08-11T08:20:24.653Z,22.00
2022-08-11T08:21:27.653Z,21.99
2022-08-11T08:22:39.121Z,22.01
2022-08-11T08:23:45.589Z,22.04
2022-08-11T08:24:51.340Z,21.99
2022-08-11T08:25:55.258Z,21.97
2022-08-11T08:27:00.855Z,21.95
2022-08-11T08:28:08.156Z,21.99
2022-08-11T08:29:28.776Z,22.05
2022-08-11T08:30:50.870Z,22.08
2022-08-11T08:31:56.577Z,22.09
2022-08-11T08:33:00.939Z,22.09
2022-08-11T08:34:04.484Z,22.08
2022-08-11T08:35:07.793Z,22.09
2022-08-11T08:36:15.360Z,22.10
2022-08-11T08:37:46.850Z,22.11
2022-08-11T08:38:44.737Z,22.16
2022-08-11T08:39:48.354Z,22.17
2022-08-11T08:40:56.464Z,22.20
2022-08-11T08:42:00.832Z,22.22
2022-08-11T08:43:08.495Z,22.21
2022-08-11T08:45:39.120Z,22.23
2022-08-11T08:46:44.175Z,22.22
2022-08-11T08:47:53.392Z,22.22
2022-08-11T08:48:58.878Z,22.24
2022-08-11T08:50:03.799Z,22.25
2022-08-11T08:52:01.750Z,22.27
2022-08-11T08:52:57.038Z,22.31
2022-08-11T08:54:04.953Z,22.33
2022-08-11T08:55:10.230Z,22.35
2022-08-11T08:56:13.977Z,22.38
2022-08-11T08:57:20.720Z,22.40
2022-08-11T08:58:25.670Z,22.45
2022-08-11T08:59:47.730Z,22.47
2022-08-11T09:00:55.418Z,22.49
2022-08-11T09:01:59.941Z,22.52
2022-08-11T09:03:22.830Z,22.54
2022-08-11T09:04:27.020Z,22.56
2022-08-11T09:05:29.377Z,22.57
2022-08-11T09:06:33.813Z,22.58
2022-08-11T09:07:39.567Z,22.58
2022-08-11T09:08:44.755Z,22.59
2022-08-11T09:09:49.371Z,22.61
2022-08-11T09:11:10.643Z,22.61
2022-08-11T09:12:36.039Z,22.61
2022-08-11T09:13:44.746Z,22.62
2022-08-11T09:15:03.274Z,22.63
2022-08-11T09:16:07.839Z,22.62
2022-08-11T09:17:09.926Z,22.62
2022-08-11T09:18:13.738Z,22.62
2022-08-11T09:19:17.904Z,22.66
2022-08-11T09:20:22.847Z,22.67
2022-08-11T09:21:37.145Z,22.68
2022-08-11T09:24:47.282Z,22.71
2022-08-11T09:26:11.370Z,22.72
2022-08-11T09:27:15.459Z,22.70
2022-08-11T09:28:22.123Z,22.69
2022-08-11T09:29:25.693Z,22.70
2022-08-11T09:30:28.488Z,22.71
2022-08-11T09:31:39.406Z,22.71
2022-08-11T09:32:42.758Z,22.70
2022-08-11T09:33:46.834Z,22.72
2022-08-11T09:34:52.100Z,22.74
2022-08-11T09:35:58.527Z,22.73
2022-08-11T09:37:28.420Z,22.74
2022-08-11T09:39:00.388Z,22.75
2022-08-11T09:40:21.763Z,22.79
2022-08-11T09:42:00.687Z,22.81
2022-08-11T09:43:11.768Z,22.83
2022-08-11T09:44:34.172Z,22.81
2022-08-11T09:45:40.518Z,22.80
2022-08-11T09:46:44.637Z,22.79
2022-08-11T09:47:48.187Z,22.80
2022-08-11T09:48:53.775Z,22.81
2022-08-11T09:50:01.342Z,22.81
2022-08-11T09:51:05.235Z,22.83
2022-08-11T09:52:09.554Z,22.85
2022-08-11T09:53:37.176Z,22.86
2022-08-11T09:54:35.503Z,22.88
2022-08-11T09:55:40.907Z,22.89
2022-08-11T09:57:05.205Z,22.87
2022-08-11T09:58:41.953Z,22.88
2022-08-11T09:59:42.633Z,22.89
2022-08-11T10:00:47.822Z,22.90
2022-08-11T10:01:56.044Z,22.95
2022-08-11T10:03:02.572Z,22.97
2022-08-11T10:04:12.399Z,22.96
2022-08-11T10:05:35.770Z,22.94
2022-08-11T10:06:58.553Z,22.95
2022-08-11T10:08:02.401Z,22.95
2022-08-11T10:09:06.753Z,22.96
2022-08-11T10:10:11.856Z,22.96
2022-08-11T10:11:20.748Z,22.97
2022-08-11T10:12:26.199Z,22.97
2022-08-11T10:14:33.778Z,22.94
2022-08-11T10:15:34.745Z,22.97
2022-08-11T10:16:40.245Z,22.98
2022-08-11T10:18:01.912Z,23.00
2022-08-11T10:19:06.405Z,22.99
2022-08-11T10:20:12.017Z,22.99
2022-08-11T10:21:23.390Z,22.98
2022-08-11T10:22:44.173Z,22.98
2022-08-11T10:25:57.842Z,23.00
2022-08-11T10:27:03.435Z,23.03
2022-08-11T10:28:30.481Z,23.04
2022-08-11T10:29:52.197Z,23.04
2022-08-11T10:31:14.566Z,23.05
2022-08-11T10:32:52.149Z,23.07
2022-08-11T10:34:03.835Z,23.08
2022-08-11T10:35:26.209Z,23.11
2022-08-11T10:36:30.352Z,23.12
2022-08-11T10:38:06.463Z,23.14
2022-08-11T10:39:01.755Z,23.14
2022-08-11T10:40:05.692Z,23.18
2022-08-11T10:41:26.077Z,23.16
2022-08-11T10:42:57.360Z,23.18
2022-08-11T10:44:04.131Z,23.21
2022-08-11T10:45:30.056Z,23.21
2022-08-11T10:46:48.448Z,23.20
2022-08-11T10:47:51.115Z,23.21
2022-08-11T10:48:54.949Z,23.19
2022-08-11T10:50:12.323Z,23.19
2022-08-11T10:51:14.841Z,23.19
2022-08-11T10:52:35.521Z,23.25
2022-08-11T10:53:58.737Z,23.27
2022-08-11T10:55:19.178Z,23.32
2022-08-11T10:56:40.576Z,23.37
2022-08-11T10:58:04.209Z,23.37
2022-08-11T10:59:10.013Z,23.39
2022-08-11T11:00:15.111Z,23.38
2022-08-11T11:01:23.537Z,23.36
2022-08-11T11:02:29.205Z,23.35
2022-08-11T11:03:34.649Z,23.34
2022-08-11T11:04:50.932Z,23.37
2022-08-11T11:06:13.026Z,23.36
2022-08-11T11:07:24.173Z,23.38
2022-08-11T11:09:59.903Z,23.41
2022-08-11T11:11:05.739Z,23.37
2022-08-11T11:12:32.211Z,23.36
2022-08-11T11:13:55.468Z,23.36
2022-08-11T11:15:22.280Z,23.40
2022-08-11T11:16:44.134Z,23.42
2022-08-11T11:18:01.778Z,23.39
2022-08-11T11:19:08.832Z,23.38
2022-08-11T11:20:36.382Z,23.37
2022-08-11T11:21:42.365Z,23.42
2022-08-11T11:22:52.227Z,23.43
2022-08-11T11:24:12.026Z,23.46
2022-08-11T11:25:22.817Z,23.48
2022-08-11T11:26:52.998Z,23.47
2022-08-11T11:28:20.163Z,23.48
2022-08-11T11:29:40.707Z,23.48
2022-08-11T11:30:52.119Z,23.47
2022-08-11T11:32:12.602Z,23.46
2022-08-11T11:33:23.306Z,23.47
2022-08-11T11:34:53.669Z,23.45
2022-08-11T11:36:12.475Z,23.45
2022-08-11T11:37:17.012Z,23.50
2022-08-11T11:38:20.877Z,23.51
2022-08-11T11:39:25.703Z,23.49
2022-08-11T11:40:32.025Z,23.51
2022-08-11T11:41:35.330Z,23.54
2022-08-11T11:42:40.370Z,23.53
2022-08-11T11:43:42.771Z,23.53
2022-08-11T11:44:46.934Z,23.54
2022-08-11T11:45:50.830Z,23.54
2022-08-11T11:46:53.556Z,23.57
2022-08-11T11:47:59.579Z,23.61
2022-08-11T11:49:15.312Z,23.62
2022-08-11T11:50:25.277Z,23.59
2022-08-11T11:51:33.844Z,23.59
2022-08-11T11:52:39.340Z,23.56
2022-08-11T11:53:44.072Z,23.53
2022-08-11T11:54:50.207Z,23.53
2022-08-11T11:55:53.907Z,23.53
2022-08-11T11:56:57.841Z,23.53
2022-08-11T11:58:22.278Z,23.54
2022-08-11T11:59:46.072Z,23.53
2022-08-11T12:01:08.437Z,23.52
2022-08-11T12:02:15.949Z,23.58
2022-08-11T12:03:19.982Z,23.63
2022-08-11T12:04:25.186Z,23.68
2022-08-11T12:05:28.257Z,23.71
2022-08-11T12:06:33.261Z,23.69
2022-08-11T12:08:04.897Z,23.67
2022-08-11T12:09:18.428Z,23.69
2022-08-11T12:10:20.933Z,23.73
2022-08-11T12:11:57.717Z,23.71
2022-08-11T12:13:20.627Z,23.73
2022-08-11T12:14:25.690Z,23.74
2022-08-11T12:16:03.446Z,23.74
2022-08-11T12:16:51.657Z,23.71
2022-08-11T12:17:54.083Z,23.71
2022-08-11T12:18:59.297Z,23.68
2022-08-11T12:20:03.705Z,23.70
2022-08-11T12:21:08.936Z,23.73
2022-08-11T12:22:29.449Z,23.75
2022-08-11T12:23:51.080Z,23.72
2022-08-11T12:25:11.856Z,23.71
2022-08-11T12:26:34.514Z,23.71
2022-08-11T12:27:39.141Z,23.73
2022-08-11T12:28:41.609Z,23.74
2022-08-11T12:29:51.421Z,23.77
2022-08-11T12:30:57.378Z,23.80
2022-08-11T12:32:00.653Z,23.81
2022-08-11T12:33:03.958Z,23.82
2022-08-11T12:34:09.273Z,23.80
2022-08-11T12:35:15.955Z,23.76
2022-08-11T12:36:21.471Z,23.74
2022-08-11T12:37:30.676Z,23.73
2022-08-11T12:38:35.067Z,23.80
2022-08-11T12:40:16.600Z,23.82
2022-08-11T12:41:40.525Z,23.81
2022-08-11T12:43:03.961Z,23.77
2022-08-11T12:44:30.160Z,23.81
2022-08-11T12:45:34.219Z,23.88
2022-08-11T12:46:38.753Z,23.89
2022-08-11T12:48:07.722Z,23.88
2022-08-11T12:49:45.339Z,23.87
2022-08-11T12:51:14.285Z,23.87
2022-08-11T12:52:22.324Z,23.87
2022-08-11T12:53:33.447Z,23.85
2022-08-11T12:54:45.772Z,23.85
2022-08-11T12:56:08.007Z,23.91
2022-08-11T12:57:36.495Z,23.92
2022-08-11T12:58:41.890Z,23.89
2022-08-11T13:00:03.336Z,23.87
2022-08-11T13:01:24.125Z,23.90
2022-08-11T13:02:45.295Z,23.91
2022-08-11T13:04:05.850Z,23.97
2022-08-11T13:05:12.912Z,23.94
2022-08-11T13:06:20.685Z,24.00
2022-08-11T13:07:23.392Z,24.02
2022-08-11T13:08:29.400Z,24.02
2022-08-11T13:09:31.886Z,24.05
2022-08-11T13:10:52.551Z,24.08
2022-08-11T13:12:24.893Z,24.08
2022-08-11T13:13:53.649Z,24.10
2022-08-11T13:14:51.419Z,24.11
2022-08-11T13:15:54.041Z,24.12
2022-08-11T13:17:15.151Z,24.11
2022-08-11T13:18:23.078Z,24.13
2022-08-11T13:19:26.124Z,24.13
2022-08-11T13:20:29.909Z,24.11
2022-08-11T13:21:33.337Z,24.08
2022-08-11T13:22:39.043Z,24.06
2022-08-11T13:23:42.131Z,24.10
2022-08-11T13:25:05.811Z,24.10
2022-08-11T13:26:08.865Z,24.16
2022-08-11T13:27:12.428Z,24.17
2022-08-11T13:28:18.489Z,24.16
2022-08-11T13:29:22.621Z,24.19
2022-08-11T13:30:47.375Z,24.17
2022-08-11T13:31:51.494Z,24.13
2022-08-11T13:32:54.011Z,24.10
2022-08-11T13:33:57.545Z,24.07
2022-08-11T13:34:59.629Z,24.08
2022-08-11T13:36:03.432Z,24.05
2022-08-11T13:37:07.756Z,24.03
2022-08-11T13:38:19.007Z,24.02
2022-08-11T13:39:25.042Z,24.02
2022-08-11T13:40:45.862Z,24.05
2022-08-11T13:41:56.752Z,24.08
2022-08-11T13:43:01.225Z,24.08
2022-08-11T13:44:04.704Z,24.08
2022-08-11T13:45:09.587Z,24.13
2022-08-11T13:46:22.541Z,24.13
2022-08-11T13:47:26.897Z,24.12
2022-08-11T13:48:28.970Z,24.12
2022-08-11T13:49:32.742Z,24.21
2022-08-11T13:50:54.794Z,24.26
2022-08-11T13:51:58.306Z,24.31
2022-08-11T13:53:01.773Z,24.35
2022-08-11T13:54:07.524Z,24.32
2022-08-11T13:55:45.156Z,24.30
2022-08-11T13:56:48.081Z,24.24
2022-08-11T13:58:06.278Z,24.22
2022-08-11T13:59:09.573Z,24.21
2022-08-11T14:00:25.094Z,24.20
2022-08-11T14:02:03.215Z,24.18
2022-08-11T14:02:58.337Z,24.16
2022-08-11T14:04:29.134Z,24.17
2022-08-11T14:05:38.945Z,24.18
2022-08-11T14:06:48.946Z,24.20
2022-08-11T14:07:54.229Z,24.23
2022-08-11T14:08:59.557Z,24.23
2022-08-11T14:10:03.903Z,24.20
2022-08-11T14:12:21.692Z,24.19
2022-08-11T14:13:16.149Z,24.22
2022-08-11T14:14:24.711Z,24.21
2022-08-11T14:15:31.375Z,24.19
2022-08-11T14:16:40.348Z,24.19
2022-08-11T14:17:48.329Z,24.17
2022-08-11T14:18:55.311Z,24.17
2022-08-11T14:19:59.268Z,24.15
2022-08-11T14:21:23.250Z,24.16
2022-08-11T14:22:26.968Z,24.16
2022-08-11T14:23:31.746Z,24.19
2022-08-11T14:24:37.844Z,24.20
2022-08-11T14:26:02.996Z,24.19
2022-08-11T14:27:07.622Z,24.23
2022-08-11T14:28:37.458Z,24.28
2022-08-11T14:29:48.604Z,24.36
2022-08-11T14:31:01.279Z,24.40
2022-08-11T14:32:07.077Z,24.40
2022-08-11T14:33:16.933Z,24.38
2022-08-11T14:34:26.194Z,24.41
2022-08-11T14:35:29.010Z,24.39
2022-08-11T14:36:35.208Z,24.35
2022-08-11T14:37:38.396Z,24.32
2022-08-11T14:38:41.768Z,24.29
2022-08-11T14:39:48.578Z,24.33
2022-08-11T14:41:10.610Z,24.39
2022-08-11T14:42:33.935Z,24.48
2022-08-11T14:44:10.418Z,24.47
2022-08-11T14:45:57.938Z,24.44
2022-08-11T14:47:24.680Z,24.47
2022-08-11T14:48:28.310Z,24.41
2022-08-11T14:49:31.275Z,24.42
2022-08-11T14:50:35.711Z,24.40
2022-08-11T14:51:40.938Z,24.36
2022-08-11T14:52:52.091Z,24.36
2022-08-11T14:54:15.016Z,24.33
2022-08-11T14:55:38.251Z,24.33
2022-08-11T14:56:41.136Z,24.28
2022-08-11T14:57:56.245Z,24.30
2022-08-11T14:59:01.500Z,24.31
2022-08-11T15:00:06.834Z,24.35
2022-08-11T15:01:30.899Z,24.34
2022-08-11T15:02:52.683Z,24.33
2022-08-11T15:04:34.494Z,24.36
2022-08-11T15:05:21.199Z,24.37
2022-08-11T15:06:28.628Z,24.36
2022-08-11T15:07:32.005Z,24.33
2022-08-11T15:08:57.638Z,24.32
2022-08-11T15:10:12.698Z,24.34
2022-08-11T15:11:39.134Z,24.36
2022-08-11T15:12:43.272Z,24.40
2022-08-11T15:13:45.372Z,24.38
2022-08-11T15:15:07.389Z,24.36
2022-08-11T15:16:28.309Z,24.38
2022-08-11T15:17:43.671Z,24.38
2022-08-11T15:18:47.269Z,24.37
2022-08-11T15:20:05.585Z,24.39
2022-08-11T15:21:25.485Z,24.38
2022-08-11T15:22:46.384Z,24.39
2022-08-11T15:24:06.681Z,24.42
2022-08-11T15:25:09.962Z,24.46
2022-08-11T15:26:14.284Z,24.49
2022-08-11T15:27:38.857Z,24.51
2022-08-11T15:29:23.090Z,24.51
2022-08-11T15:30:45.835Z,24.51
2022-08-11T15:32:06.936Z,24.49
2022-08-11T15:34:21.055Z,24.43
2022-08-11T15:35:42.033Z,24.41
2022-08-11T15:37:05.577Z,24.39
2022-08-11T15:38:13.503Z,24.39
2022-08-11T15:39:20.929Z,24.44
2022-08-11T15:40:46.361Z,24.48
2022-08-11T15:42:12.705Z,24.55
2022-08-11T15:43:39.574Z,24.56
2022-08-11T15:45:16.238Z,24.53
2022-08-11T15:46:31.919Z,24.49
2022-08-11T15:47:41.783Z,24.47
2022-08-11T15:48:49.399Z,24.47
2022-08-11T15:50:11.501Z,24.48
2022-08-11T15:51:25.009Z,24.44
2022-08-11T15:52:32.980Z,24.42
2022-08-11T15:53:43.689Z,24.41
2022-08-11T15:55:02.377Z,24.41
2022-08-11T15:56:07.346Z,24.40
2022-08-11T15:57:39.528Z,24.41
2022-08-11T15:59:42.220Z,24.40
2022-08-11T16:01:08.591Z,24.40
2022-08-11T16:02:33.606Z,24.41
2022-08-11T16:04:07.782Z,24.46
2022-08-11T16:05:45.027Z,24.44
2022-08-11T16:06:41.865Z,24.43
2022-08-11T16:07:52.892Z,24.43
2022-08-11T16:09:03.002Z,24.41
2022-08-11T16:10:09.631Z,24.39
2022-08-11T16:11:13.530Z,24.37
2022-08-11T16:12:20.016Z,24.34
2022-08-11T16:13:42.972Z,24.35
2022-08-11T16:15:09.522Z,24.32
2022-08-11T16:16:16.163Z,24.32
2022-08-11T16:17:21.087Z,24.31
2022-08-11T16:18:40.434Z,24.29
2022-08-11T16:19:45.212Z,24.29
2022-08-11T16:20:50.236Z,24.28
2022-08-11T16:21:54.190Z,24.28
2022-08-11T16:23:07.732Z,24.27
2022-08-11T16:27:03.233Z,24.26
2022-08-11T16:27:03.406Z,24.27
2022-08-11T16:27:11.282Z,24.25
2022-08-11T16:28:16.954Z,24.25
2022-08-11T16:29:21.656Z,24.24
2022-08-11T16:30:26.947Z,24.24
2022-08-11T16:31:31.265Z,24.21
2022-08-11T16:32:36.659Z,24.22
2022-08-11T16:33:50.605Z,24.22
2022-08-11T16:35:15.627Z,24.20
2022-08-11T16:36:40.482Z,24.20